createdAt,value
2023-02-27T00:00:35.732Z,1020.63
2023-02-27T00:02:35.685Z,1020.63
2023-02-27T00:04:35.769Z,1020.63
2023-02-27T00:06:35.766Z,1020.59
2023-02-27T00:08:36.164Z,1020.59
2023-02-27T00:10:35.664Z,1020.59
2023-02-27T00:12:35.709Z,1020.59
2023-02-27T00:14:35.695Z,1020.59
2023-02-27T00:16:35.679Z,1020.59
2023-02-27T00:18:35.678Z,1020.59
2023-02-27T00:20:35.756Z,1020.59
2023-02-27T00:22:35.656Z,1020.59
2023-02-27T00:24:35.908Z,1020.59
2023-02-27T00:26:35.809Z,1020.66
2023-02-27T00:28:35.692Z,1020.66
2023-02-27T00:30:35.693Z,1020.63
2023-02-27T00:32:35.697Z,1020.61
2023-02-27T00:34:35.655Z,1020.65
2023-02-27T00:36:35.673Z,1020.67
2023-02-27T00:39:05.698Z,1020.67
2023-02-27T00:41:05.668Z,1020.64
2023-02-27T00:43:05.661Z,1020.64
2023-02-27T00:45:05.701Z,1020.64
2023-02-27T00:47:05.664Z,1020.66
2023-02-27T00:49:05.675Z,1020.66
2023-02-27T00:51:05.683Z,1020.66
2023-02-27T00:53:05.702Z,1020.66
2023-02-27T00:55:05.884Z,1020.66
2023-02-27T00:57:05.670Z,1020.69
2023-02-27T00:59:05.937Z,1020.69
2023-02-27T01:01:05.845Z,1020.69
2023-02-27T01:03:05.719Z,1020.69
2023-02-27T01:05:05.696Z,1020.64
2023-02-27T01:07:05.727Z,1020.68
2023-02-27T01:09:05.708Z,1020.68
2023-02-27T01:11:05.679Z,1020.68
2023-02-27T01:13:05.687Z,1020.68
2023-02-27T01:15:05.701Z,1020.68
2023-02-27T01:17:05.686Z,1020.58
2023-02-27T01:19:05.789Z,1020.61
2023-02-27T01:21:05.907Z,1020.61
2023-02-27T01:23:05.719Z,1020.61
2023-02-27T01:25:05.728Z,1020.63
2023-02-27T01:27:05.741Z,1020.66
2023-02-27T01:29:06.573Z,1020.66
2023-02-27T01:31:05.715Z,1020.66
2023-02-27T01:33:05.700Z,1020.66
2023-02-27T01:35:05.894Z,1020.66
2023-02-27T01:37:05.686Z,1020.66
2023-02-27T01:39:05.746Z,1020.66
2023-02-27T01:41:05.700Z,1020.66
2023-02-27T01:43:05.724Z,1020.69
2023-02-27T01:45:05.706Z,1020.69
2023-02-27T01:47:05.753Z,1020.69
2023-02-27T01:49:05.836Z,1020.69
2023-02-27T01:51:05.708Z,1020.69
2023-02-27T01:53:05.732Z,1020.69
2023-02-27T01:55:05.726Z,1020.69
2023-02-27T01:57:05.826Z,1020.69
2023-02-27T01:59:05.711Z,1020.69
2023-02-27T02:01:05.812Z,1020.69
2023-02-27T02:03:05.871Z,1020.69
2023-02-27T02:05:05.707Z,1020.53
2023-02-27T02:07:05.726Z,1020.53
2023-02-27T02:09:05.726Z,1020.53
2023-02-27T02:11:05.760Z,1020.53
2023-02-27T02:13:05.729Z,1020.53
2023-02-27T02:15:05.754Z,1020.53
2023-02-27T02:17:05.728Z,1020.53
2023-02-27T02:19:05.733Z,1020.53
2023-02-27T02:21:35.801Z,1020.53
2023-02-27T02:23:35.711Z,1020.53
2023-02-27T02:25:35.722Z,1020.53
2023-02-27T02:27:35.729Z,1020.53
2023-02-27T02:29:35.835Z,1020.53
2023-02-27T02:31:35.830Z,1020.53
2023-02-27T02:33:35.712Z,1020.50
2023-02-27T02:35:35.722Z,1020.50
2023-02-27T02:37:35.733Z,1020.50
2023-02-27T02:39:35.712Z,1020.50
2023-02-27T02:41:35.775Z,1020.50
2023-02-27T02:43:35.718Z,1020.48
2023-02-27T02:45:35.874Z,1020.48
2023-02-27T02:47:35.738Z,1020.48
2023-02-27T02:49:35.849Z,1020.48
2023-02-27T02:51:35.741Z,1020.48
2023-02-27T02:53:37.340Z,1020.52
2023-02-27T02:55:35.857Z,1020.52
2023-02-27T02:57:35.736Z,1020.52
2023-02-27T02:59:35.876Z,1020.52
2023-02-27T03:01:35.758Z,1020.52
2023-02-27T03:03:35.752Z,1020.52
2023-02-27T03:05:35.778Z,1020.58
2023-02-27T03:07:35.799Z,1020.58
2023-02-27T03:09:35.753Z,1020.58
2023-02-27T03:11:35.748Z,1020.56
2023-02-27T03:13:35.755Z,1020.56
2023-02-27T03:15:35.785Z,1020.53
2023-02-27T03:17:35.753Z,1020.54
2023-02-27T03:19:35.766Z,1020.54
2023-02-27T03:21:35.934Z,1020.54
2023-02-27T03:23:35.849Z,1020.54
2023-02-27T03:25:35.760Z,1020.51
2023-02-27T03:27:35.753Z,1020.52
2023-02-27T03:29:35.886Z,1020.52
2023-02-27T03:31:35.816Z,1020.52
2023-02-27T03:33:35.738Z,1020.55
2023-02-27T03:35:35.735Z,1020.56
2023-02-27T03:37:35.737Z,1020.56
2023-02-27T03:39:35.756Z,1020.56
2023-02-27T03:41:35.736Z,1020.56
2023-02-27T03:43:36.009Z,1020.56
2023-02-27T03:45:35.752Z,1020.61
2023-02-27T03:47:35.769Z,1020.61
2023-02-27T03:49:35.760Z,1020.64
2023-02-27T03:51:35.755Z,1020.64
2023-02-27T03:53:35.764Z,1020.64
2023-02-27T03:55:35.773Z,1020.64
2023-02-27T03:57:35.761Z,1020.64
2023-02-27T03:59:35.787Z,1020.64
2023-02-27T04:01:35.815Z,1020.67
2023-02-27T04:03:35.766Z,1020.65
2023-02-27T04:05:37.933Z,1020.65
2023-02-27T04:08:05.775Z,1020.65
2023-02-27T04:10:05.781Z,1020.65
2023-02-27T04:12:05.773Z,1020.65
2023-02-27T04:14:05.801Z,1020.65
2023-02-27T04:16:05.837Z,1020.65
2023-02-27T04:18:05.933Z,1020.65
2023-02-27T04:20:05.779Z,1020.70
2023-02-27T04:22:05.859Z,1020.70
2023-02-27T04:24:05.763Z,1020.70
2023-02-27T04:26:05.767Z,1020.72
2023-02-27T04:28:05.757Z,1020.72
2023-02-27T04:30:05.794Z,1020.72
2023-02-27T04:32:05.862Z,1020.72
2023-02-27T04:34:05.782Z,1020.71
2023-02-27T04:36:05.774Z,1020.71
2023-02-27T04:38:06.027Z,1020.78
2023-02-27T04:40:05.779Z,1020.78
2023-02-27T04:42:05.865Z,1020.78
2023-02-27T04:44:05.980Z,1020.78
2023-02-27T04:46:05.954Z,1020.78
2023-02-27T04:48:05.862Z,1020.78
2023-02-27T04:50:05.780Z,1020.92
2023-02-27T04:52:05.789Z,1020.92
2023-02-27T04:54:05.781Z,1020.90
2023-02-27T04:56:05.883Z,1020.92
2023-02-27T04:58:05.811Z,1020.92
2023-02-27T05:00:05.974Z,1020.92
2023-02-27T05:02:05.973Z,1020.92
2023-02-27T05:04:05.979Z,1020.92
2023-02-27T05:06:05.823Z,1020.92
2023-02-27T05:08:05.900Z,1020.92
2023-02-27T05:10:05.814Z,1020.92
2023-02-27T05:12:05.853Z,1020.92
2023-02-27T05:14:05.946Z,1020.91
2023-02-27T05:16:05.850Z,1020.94
2023-02-27T05:18:05.967Z,1020.90
2023-02-27T05:20:05.798Z,1020.90
2023-02-27T05:22:05.799Z,1020.90
2023-02-27T05:24:05.801Z,1020.91
2023-02-27T05:26:05.820Z,1020.91
2023-02-27T05:28:05.895Z,1020.91
2023-02-27T05:30:05.812Z,1020.91
2023-02-27T05:32:05.977Z,1020.91
2023-02-27T05:34:05.809Z,1020.98
2023-02-27T05:36:05.845Z,1021.01
2023-02-27T05:38:05.842Z,1021.01
2023-02-27T05:40:05.929Z,1021.01
2023-02-27T05:42:05.935Z,1021.02
2023-02-27T05:44:05.898Z,1021.04
2023-02-27T05:46:06.050Z,1021.04
2023-02-27T05:48:05.924Z,1021.04
2023-02-27T05:50:35.974Z,1021.04
2023-02-27T05:52:35.819Z,1021.04
2023-02-27T05:54:35.812Z,1021.07
2023-02-27T05:56:35.940Z,1021.07
2023-02-27T05:58:35.888Z,1021.07
2023-02-27T06:00:35.864Z,1021.07
2023-02-27T06:02:36.465Z,1021.10
2023-02-27T06:04:35.890Z,1021.15
2023-02-27T06:06:35.821Z,1021.15
2023-02-27T06:08:35.930Z,1021.20
2023-02-27T06:10:35.845Z,1021.20
2023-02-27T06:12:35.882Z,1021.16
2023-02-27T06:14:35.820Z,1021.17
2023-02-27T06:16:35.887Z,1021.17
2023-02-27T06:18:35.819Z,1021.18
2023-02-27T06:20:35.889Z,1021.18
2023-02-27T06:22:35.894Z,1021.22
2023-02-27T06:24:35.932Z,1021.22
2023-02-27T06:26:35.821Z,1021.22
2023-02-27T06:28:35.983Z,1021.17
2023-02-27T06:30:35.951Z,1021.22
2023-02-27T06:32:36.001Z,1021.24
2023-02-27T06:34:35.946Z,1021.24
2023-02-27T06:36:35.916Z,1021.31
2023-02-27T06:38:35.946Z,1021.25
2023-02-27T06:40:38.493Z,1021.24
2023-02-27T06:42:35.987Z,1021.30
2023-02-27T06:44:36.187Z,1021.30
2023-02-27T06:48:44.104Z,1021.37
2023-02-27T06:50:44.124Z,1021.37
2023-02-27T06:52:44.141Z,1021.37
2023-02-27T06:54:44.127Z,1021.37
2023-02-27T06:56:44.115Z,1021.39
2023-02-27T06:58:44.120Z,1021.44
2023-02-27T07:00:44.125Z,1021.44
2023-02-27T07:02:44.304Z,1021.44
2023-02-27T07:04:44.180Z,1021.46
2023-02-27T07:07:36.274Z,1021.44
2023-02-27T07:09:01.798Z,1021.45
2023-02-27T07:10:44.272Z,1021.48
2023-02-27T07:12:44.280Z,1021.48
2023-02-27T07:14:44.192Z,1021.47
2023-02-27T07:16:44.104Z,1021.44
2023-02-27T07:18:44.139Z,1021.48
2023-02-27T07:20:44.137Z,1021.42
2023-02-27T07:22:44.149Z,1021.42
2023-02-27T07:24:44.163Z,1021.51
2023-02-27T07:26:44.143Z,1021.51
2023-02-27T07:28:44.163Z,1021.51
2023-02-27T07:30:44.122Z,1021.56
2023-02-27T07:32:44.270Z,1021.56
2023-02-27T07:34:44.118Z,1021.59
2023-02-27T07:36:44.130Z,1021.64
2023-02-27T07:38:44.120Z,1021.55
2023-02-27T07:40:44.145Z,1021.55
2023-02-27T07:42:44.296Z,1021.55
2023-02-27T07:44:44.131Z,1021.60
2023-02-27T07:46:44.181Z,1021.61
2023-02-27T07:48:44.133Z,1021.61
2023-02-27T07:50:44.132Z,1021.61
2023-02-27T07:52:44.204Z,1021.61
2023-02-27T07:54:44.283Z,1021.58
2023-02-27T07:56:44.148Z,1021.64
2023-02-27T07:58:44.134Z,1021.63
2023-02-27T08:01:14.247Z,1021.68
2023-02-27T08:03:14.156Z,1021.68
2023-02-27T08:05:14.182Z,1021.69
2023-02-27T08:07:14.344Z,1021.69
2023-02-27T08:09:14.228Z,1021.74
2023-02-27T08:11:14.137Z,1021.74
2023-02-27T08:13:14.185Z,1021.74
2023-02-27T08:15:14.166Z,1021.84
2023-02-27T08:17:14.165Z,1021.84
2023-02-27T08:19:14.154Z,1021.82
2023-02-27T08:21:14.155Z,1021.82
2023-02-27T08:23:14.167Z,1021.82
2023-02-27T08:25:14.175Z,1021.82
2023-02-27T08:27:14.253Z,1021.82
2023-02-27T08:29:15.565Z,1021.83
2023-02-27T08:31:14.230Z,1021.79
2023-02-27T08:33:15.242Z,1021.79
2023-02-27T08:35:14.165Z,1021.83
2023-02-27T08:37:14.171Z,1021.83
2023-02-27T08:39:14.162Z,1021.81
2023-02-27T08:41:14.160Z,1021.81
2023-02-27T08:43:14.188Z,1021.81
2023-02-27T08:45:14.248Z,1021.87
2023-02-27T08:47:14.180Z,1021.87
2023-02-27T08:49:14.202Z,1021.92
2023-02-27T08:51:14.167Z,1021.92
2023-02-27T08:53:14.177Z,1021.92
2023-02-27T08:55:14.166Z,1021.92
2023-02-27T08:57:14.168Z,1021.92
2023-02-27T08:59:14.168Z,1021.92
2023-02-27T09:01:14.206Z,1021.92
2023-02-27T09:03:14.164Z,1021.92
2023-02-27T09:05:14.165Z,1022.01
2023-02-27T09:07:14.298Z,1022.03
2023-02-27T09:09:14.162Z,1022.03
2023-02-27T09:11:14.169Z,1022.03
2023-02-27T09:13:14.159Z,1022.05
2023-02-27T09:15:14.175Z,1022.05
2023-02-27T09:17:14.208Z,1021.99
2023-02-27T09:19:14.190Z,1021.99
2023-02-27T09:21:14.176Z,1021.99
2023-02-27T09:23:14.181Z,1022.02
2023-02-27T09:25:14.181Z,1022.02
2023-02-27T09:27:14.192Z,1022.02
2023-02-27T09:29:14.182Z,1022.02
2023-02-27T09:31:14.217Z,1022.02
2023-02-27T09:33:14.165Z,1022.03
2023-02-27T09:35:14.192Z,1022.05
2023-02-27T09:37:14.219Z,1022.05
2023-02-27T09:39:14.181Z,1022.05
2023-02-27T09:41:14.209Z,1022.15
2023-02-27T09:43:14.361Z,1022.15
2023-02-27T09:45:14.222Z,1022.13
2023-02-27T09:47:44.189Z,1022.13
2023-02-27T09:49:44.176Z,1022.21
2023-02-27T09:51:44.192Z,1022.16
2023-02-27T09:53:44.202Z,1022.21
2023-02-27T09:55:44.226Z,1022.22
2023-02-27T09:57:44.219Z,1022.22
2023-02-27T09:59:44.175Z,1022.20
2023-02-27T10:01:44.184Z,1022.22
2023-02-27T10:03:44.245Z,1022.31
2023-02-27T10:05:44.211Z,1022.31
2023-02-27T10:07:44.234Z,1022.29
2023-02-27T10:09:44.188Z,1022.26
2023-02-27T10:11:44.199Z,1022.26
2023-02-27T10:13:44.207Z,1022.31
2023-02-27T10:15:44.208Z,1022.31
2023-02-27T10:17:44.223Z,1022.31
2023-02-27T10:19:44.216Z,1022.31
2023-02-27T10:21:44.191Z,1022.31
2023-02-27T10:23:44.291Z,1022.31
2023-02-27T10:25:44.259Z,1022.31
2023-02-27T10:27:44.208Z,1022.39
2023-02-27T10:29:44.207Z,1022.41
2023-02-27T10:31:44.282Z,1022.41
2023-02-27T10:33:44.246Z,1022.44
2023-02-27T10:35:44.282Z,1022.44
2023-02-27T10:37:44.228Z,1022.57
2023-02-27T10:39:44.235Z,1022.52
2023-02-27T10:41:44.331Z,1022.54
2023-02-27T10:43:44.426Z,1022.54
2023-02-27T10:45:44.229Z,1022.55
2023-02-27T10:47:44.222Z,1022.57
2023-02-27T10:49:44.221Z,1022.70
2023-02-27T10:51:44.232Z,1022.70
2023-02-27T10:53:44.228Z,1022.70
2023-02-27T10:55:44.273Z,1022.71
2023-02-27T10:57:44.395Z,1022.67
2023-02-27T10:59:44.261Z,1022.67
2023-02-27T11:01:44.235Z,1022.67
2023-02-27T11:03:44.279Z,1022.67
2023-02-27T11:05:44.295Z,1022.67
2023-02-27T11:07:44.229Z,1022.65
2023-02-27T11:09:44.242Z,1022.59
2023-02-27T11:11:44.324Z,1022.59
2023-02-27T11:13:44.232Z,1022.58
2023-02-27T11:15:44.319Z,1022.61
2023-02-27T11:17:44.262Z,1022.61
2023-02-27T11:19:44.248Z,1022.61
2023-02-27T11:21:44.238Z,1022.61
2023-02-27T11:23:44.264Z,1022.52
2023-02-27T11:25:44.336Z,1022.54
2023-02-27T11:27:44.359Z,1022.54
2023-02-27T11:29:44.242Z,1022.54
2023-02-27T11:31:44.267Z,1022.54
2023-02-27T11:33:44.286Z,1022.45
2023-02-27T11:36:16.236Z,1022.45
2023-02-27T11:38:14.238Z,1022.30
2023-02-27T11:40:14.268Z,1022.38
2023-02-27T11:42:16.403Z,1022.39
2023-02-27T11:44:14.263Z,1022.39
2023-02-27T11:46:36.676Z,1022.39
2023-02-27T11:48:14.262Z,1022.26
2023-02-27T11:50:14.388Z,1022.26
2023-02-27T11:52:14.266Z,1022.42
2023-02-27T11:54:14.267Z,1022.42
2023-02-27T11:56:15.268Z,1022.42
2023-02-27T11:58:14.260Z,1022.40
2023-02-27T12:00:14.316Z,1022.43
2023-02-27T12:02:14.385Z,1022.38
2023-02-27T12:04:14.350Z,1022.38
2023-02-27T12:06:14.272Z,1022.32
2023-02-27T12:08:14.291Z,1022.24
2023-02-27T12:10:14.352Z,1022.32
2023-02-27T12:12:14.282Z,1022.32
2023-02-27T12:14:14.290Z,1022.32
2023-02-27T12:16:14.283Z,1022.32
2023-02-27T12:18:14.284Z,1022.22
2023-02-27T12:20:14.332Z,1022.22
2023-02-27T12:22:14.291Z,1022.22
2023-02-27T12:24:14.297Z,1022.32
2023-02-27T12:26:14.283Z,1022.32
2023-02-27T12:28:14.305Z,1022.33
2023-02-27T12:30:14.284Z,1022.42
2023-02-27T12:32:14.324Z,1022.42
2023-02-27T12:34:14.274Z,1022.44
2023-02-27T12:36:14.302Z,1022.34
2023-02-27T12:38:14.288Z,1022.42
2023-02-27T12:40:14.295Z,1022.42
2023-02-27T12:42:14.378Z,1022.42
2023-02-27T12:44:14.303Z,1022.42
2023-02-27T12:46:14.377Z,1022.42
2023-02-27T12:48:14.297Z,1022.42
2023-02-27T12:50:14.273Z,1022.42
2023-02-27T12:52:14.294Z,1022.42
2023-02-27T12:54:14.352Z,1022.42
2023-02-27T12:56:14.444Z,1022.42
2023-02-27T12:58:14.302Z,1022.42
2023-02-27T13:00:14.307Z,1022.42
2023-02-27T13:02:14.303Z,1022.35
2023-02-27T13:04:14.333Z,1022.40
2023-02-27T13:06:14.304Z,1022.40
2023-02-27T13:08:14.378Z,1022.40
2023-02-27T13:10:14.293Z,1022.27
2023-02-27T13:12:14.376Z,1022.25
2023-02-27T13:14:14.295Z,1022.21
2023-02-27T13:16:14.397Z,1022.19
2023-02-27T13:18:14.406Z,1022.19
2023-02-27T13:20:44.417Z,1022.25
2023-02-27T13:22:44.382Z,1022.23
2023-02-27T13:24:44.448Z,1022.27
2023-02-27T13:26:44.382Z,1022.27
2023-02-27T13:28:44.378Z,1022.27
2023-02-27T13:30:44.376Z,1022.22
2023-02-27T13:32:44.956Z,1022.24
2023-02-27T13:34:44.476Z,1022.27
2023-02-27T13:36:44.306Z,1022.27
2023-02-27T13:38:44.476Z,1022.21
2023-02-27T13:40:44.319Z,1022.25
2023-02-27T13:42:44.419Z,1022.24
2023-02-27T13:44:44.382Z,1022.17
2023-02-27T13:46:44.430Z,1022.17
2023-02-27T13:50:52.938Z,1022.17
2023-02-27T13:52:52.955Z,1022.17
2023-02-27T13:54:55.190Z,1022.17
2023-02-27T13:56:52.932Z,1022.17
2023-02-27T13:58:52.942Z,1022.13
2023-02-27T14:00:53.027Z,1022.21
2023-02-27T14:02:59.745Z,1022.22
2023-02-27T14:04:52.937Z,1022.25
2023-02-27T14:06:52.982Z,1022.25
2023-02-27T14:08:55.684Z,1022.22
2023-02-27T14:10:52.961Z,1022.20
2023-02-27T14:12:52.936Z,1022.25
2023-02-27T14:14:52.948Z,1022.25
2023-02-27T14:16:52.948Z,1022.32
2023-02-27T14:18:52.991Z,1022.22
2023-02-27T14:20:52.930Z,1022.32
2023-02-27T14:22:52.991Z,1022.34
2023-02-27T14:25:02.436Z,1022.34
2023-02-27T14:26:53.145Z,1022.32
2023-02-27T14:28:52.929Z,1022.32
2023-02-27T14:30:53.008Z,1022.36
2023-02-27T14:32:52.957Z,1022.38
2023-02-27T14:34:52.943Z,1022.38
2023-02-27T14:36:52.949Z,1022.38
2023-02-27T14:38:52.967Z,1022.38
2023-02-27T14:40:52.932Z,1022.42
2023-02-27T14:42:52.963Z,1022.42
2023-02-27T14:44:52.970Z,1022.41
2023-02-27T14:46:52.934Z,1022.41
2023-02-27T14:48:52.945Z,1022.39
2023-02-27T14:50:53.682Z,1022.40
2023-02-27T14:52:52.967Z,1022.40
2023-02-27T14:54:52.953Z,1022.44
2023-02-27T14:56:53.049Z,1022.45
2023-02-27T14:59:03.643Z,1022.44
2023-02-27T15:00:52.967Z,1022.44
2023-02-27T15:02:52.936Z,1022.44
2023-02-27T15:04:53.014Z,1022.48
2023-02-27T15:06:52.964Z,1022.46
2023-02-27T15:08:52.972Z,1022.46
2023-02-27T15:10:52.956Z,1022.46
2023-02-27T15:12:52.992Z,1022.51
2023-02-27T15:14:53.013Z,1022.49
2023-02-27T15:16:55.640Z,1022.53
2023-02-27T15:18:53.144Z,1022.56
2023-02-27T15:20:53.083Z,1022.56
2023-02-27T15:22:53.154Z,1022.57
2023-02-27T15:24:52.958Z,1022.61
2023-02-27T15:26:53.071Z,1022.63
2023-02-27T15:28:52.961Z,1022.63
2023-02-27T15:30:53.046Z,1022.63
2023-02-27T15:32:55.452Z,1022.64
2023-02-27T15:35:23.081Z,1022.60
2023-02-27T15:37:23.066Z,1022.58
2023-02-27T15:39:23.067Z,1022.58
2023-02-27T15:41:23.067Z,1022.59
2023-02-27T15:43:23.140Z,1022.59
2023-02-27T15:45:23.073Z,1022.62
2023-02-27T15:47:23.031Z,1022.58
2023-02-27T15:49:22.981Z,1022.58
2023-02-27T15:51:23.019Z,1022.72
2023-02-27T15:53:23.220Z,1022.72
2023-02-27T15:55:23.073Z,1022.72
2023-02-27T15:57:23.200Z,1022.78
2023-02-27T15:59:23.108Z,1022.82
2023-02-27T16:01:23.291Z,1022.84
2023-02-27T16:03:23.080Z,1022.84
2023-02-27T16:05:23.022Z,1022.84
2023-02-27T16:07:23.046Z,1022.87
2023-02-27T16:09:23.096Z,1022.87
2023-02-27T16:11:23.057Z,1022.87
2023-02-27T16:13:23.144Z,1022.96
2023-02-27T16:15:23.288Z,1022.98
2023-02-27T16:17:23.122Z,1023.02
2023-02-27T16:19:23.063Z,1023.07
2023-02-27T16:21:23.042Z,1023.07
2023-02-27T16:23:23.071Z,1023.13
2023-02-27T16:25:23.090Z,1023.20
2023-02-27T16:27:23.109Z,1023.28
2023-02-27T16:29:23.032Z,1023.28
2023-02-27T16:31:23.076Z,1023.28
2023-02-27T16:33:23.040Z,1023.35
2023-02-27T16:35:23.158Z,1023.40
2023-02-27T16:37:23.070Z,1023.40
2023-02-27T16:39:23.092Z,1023.40
2023-02-27T16:41:23.404Z,1023.45
2023-02-27T16:43:23.108Z,1023.44
2023-02-27T16:45:23.241Z,1023.50
2023-02-27T16:47:23.054Z,1023.55
2023-02-27T16:49:23.043Z,1023.55
2023-02-27T16:51:23.065Z,1023.55
2023-02-27T16:53:23.164Z,1023.57
2023-02-27T16:55:24.304Z,1023.58
2023-02-27T16:57:23.115Z,1023.58
2023-02-27T16:59:23.007Z,1023.58
2023-02-27T17:01:23.160Z,1023.58
2023-02-27T17:03:23.042Z,1023.58
2023-02-27T17:05:23.063Z,1023.64
2023-02-27T17:07:23.089Z,1023.66
2023-02-27T17:09:24.098Z,1023.66
2023-02-27T17:11:23.149Z,1023.66
2023-02-27T17:13:23.114Z,1023.66
2023-02-27T17:15:23.123Z,1023.66
2023-02-27T17:17:23.038Z,1023.66
2023-02-27T17:19:23.089Z,1023.69
2023-02-27T17:21:53.093Z,1023.75
2023-02-27T17:23:53.103Z,1023.86
2023-02-27T17:25:53.125Z,1023.83
2023-02-27T17:27:53.142Z,1023.83
2023-02-27T17:29:53.151Z,1023.83
2023-02-27T17:31:53.203Z,1023.83
2023-02-27T17:33:53.081Z,1023.83
2023-02-27T17:35:53.251Z,1023.83
2023-02-27T17:37:53.113Z,1023.83
2023-02-27T17:39:53.120Z,1023.86
2023-02-27T17:41:53.181Z,1023.86
2023-02-27T17:43:53.185Z,1023.86
2023-02-27T17:45:53.195Z,1023.86
2023-02-27T17:47:53.081Z,1023.91
2023-02-27T17:49:53.055Z,1023.91
2023-02-27T17:51:53.113Z,1023.91
2023-02-27T17:53:53.113Z,1024.05
2023-02-27T17:55:53.115Z,1024.05
2023-02-27T17:57:53.042Z,1024.03
2023-02-27T17:59:53.197Z,1024.03
2023-02-27T18:01:55.490Z,1024.03
2023-02-27T18:03:53.150Z,1024.13
2023-02-27T18:05:53.107Z,1024.13
2023-02-27T18:07:55.386Z,1024.14
2023-02-27T18:09:53.230Z,1024.23
2023-02-27T18:11:53.136Z,1024.28
2023-02-27T18:13:53.133Z,1024.28
2023-02-27T18:15:53.220Z,1024.26
2023-02-27T18:17:53.087Z,1024.29
2023-02-27T18:19:53.112Z,1024.29
2023-02-27T18:21:53.102Z,1024.31
2023-02-27T18:23:53.130Z,1024.31
2023-02-27T18:25:53.134Z,1024.30
2023-02-27T18:27:53.168Z,1024.30
2023-02-27T18:29:53.167Z,1024.26
2023-02-27T18:31:53.103Z,1024.26
2023-02-27T18:33:53.100Z,1024.26
2023-02-27T18:35:53.252Z,1024.26
2023-02-27T18:37:53.145Z,1024.26
2023-02-27T18:39:53.160Z,1024.26
2023-02-27T18:41:53.243Z,1024.26
2023-02-27T18:43:53.114Z,1024.26
2023-02-27T18:45:53.088Z,1024.26
2023-02-27T18:47:54.111Z,1024.26
2023-02-27T18:49:53.060Z,1024.26
2023-02-27T18:51:53.132Z,1024.26
2023-02-27T18:53:53.187Z,1024.26
2023-02-27T18:55:53.174Z,1024.25
2023-02-27T18:57:53.162Z,1024.25
2023-02-27T18:59:53.085Z,1024.25
2023-02-27T19:01:53.075Z,1024.25
2023-02-27T19:03:53.247Z,1024.25
2023-02-27T19:06:23.139Z,1024.32
2023-02-27T19:08:23.150Z,1024.31
2023-02-27T19:10:23.194Z,1024.31
2023-02-27T19:12:23.246Z,1024.31
2023-02-27T19:14:23.092Z,1024.31
2023-02-27T19:16:23.154Z,1024.31
2023-02-27T19:18:23.110Z,1024.37
2023-02-27T19:20:23.150Z,1024.34
2023-02-27T19:22:23.169Z,1024.31
2023-02-27T19:24:23.190Z,1024.31
2023-02-27T19:26:23.256Z,1024.31
2023-02-27T19:28:23.196Z,1024.28
2023-02-27T19:30:23.152Z,1024.29
2023-02-27T19:32:23.288Z,1024.29
2023-02-27T19:34:23.108Z,1024.29
2023-02-27T19:36:23.161Z,1024.31
2023-02-27T19:38:23.148Z,1024.31
2023-02-27T19:40:23.210Z,1024.31
2023-02-27T19:42:23.198Z,1024.31
2023-02-27T19:44:23.235Z,1024.28
2023-02-27T19:46:23.166Z,1024.25
2023-02-27T19:48:23.132Z,1024.28
2023-02-27T19:50:23.212Z,1024.23
2023-02-27T19:52:23.158Z,1024.23
2023-02-27T19:54:23.176Z,1024.23
2023-02-27T19:56:23.189Z,1024.19
2023-02-27T19:58:23.204Z,1024.23
2023-02-27T20:00:23.233Z,1024.23
2023-02-27T20:02:23.202Z,1024.23
2023-02-27T20:04:23.299Z,1024.23
2023-02-27T20:06:23.200Z,1024.23
2023-02-27T20:08:23.091Z,1024.23
2023-02-27T20:10:23.222Z,1024.25
2023-02-27T20:12:23.108Z,1024.25
2023-02-27T20:14:23.108Z,1024.25
2023-02-27T20:16:23.151Z,1024.25
2023-02-27T20:18:23.141Z,1024.22
2023-02-27T20:20:23.170Z,1024.22
2023-02-27T20:22:23.192Z,1024.19
2023-02-27T20:24:23.087Z,1024.19
2023-02-27T20:26:23.116Z,1024.19
2023-02-27T20:28:23.221Z,1024.19
2023-02-27T20:30:23.125Z,1024.19
2023-02-27T20:32:23.335Z,1024.19
2023-02-27T20:34:23.153Z,1024.19
2023-02-27T20:36:23.171Z,1024.19
2023-02-27T20:38:23.195Z,1024.19
2023-02-27T20:40:23.188Z,1024.19
2023-02-27T20:42:23.170Z,1024.14
2023-02-27T20:44:23.329Z,1024.14
2023-02-27T20:46:23.656Z,1024.14
2023-02-27T20:48:23.246Z,1024.14
2023-02-27T20:50:23.245Z,1024.14
2023-02-27T20:52:23.320Z,1024.14
2023-02-27T20:56:32.349Z,1024.14
2023-02-27T20:58:32.623Z,1024.14
2023-02-27T21:00:32.536Z,1024.14
2023-02-27T21:02:32.318Z,1024.00
2023-02-27T21:04:32.462Z,1024.00
2023-02-27T21:06:32.357Z,1023.99
2023-02-27T21:08:32.385Z,1023.99
2023-02-27T21:10:32.352Z,1023.99
2023-02-27T21:12:32.367Z,1023.99
2023-02-27T21:14:32.377Z,1023.99
2023-02-27T21:16:32.375Z,1023.99
2023-02-27T21:18:32.321Z,1024.02
2023-02-27T21:20:32.325Z,1024.02
2023-02-27T21:22:32.336Z,1024.07
2023-02-27T21:24:32.348Z,1024.07
2023-02-27T21:27:02.354Z,1024.07
2023-02-27T21:29:02.362Z,1024.04
2023-02-27T21:31:02.556Z,1024.04
2023-02-27T21:33:04.356Z,1024.06
2023-02-27T21:35:02.340Z,1024.04
2023-02-27T21:37:02.315Z,1024.04
2023-02-27T21:39:02.346Z,1024.04
2023-02-27T21:41:02.359Z,1024.04
2023-02-27T21:43:02.388Z,1023.97
2023-02-27T21:45:02.429Z,1023.97
2023-02-27T21:47:02.428Z,1023.97
2023-02-27T21:49:02.318Z,1023.97
2023-02-27T21:51:02.313Z,1023.97
2023-02-27T21:53:02.348Z,1023.97
2023-02-27T21:55:02.319Z,1023.97
2023-02-27T21:57:02.375Z,1023.97
2023-02-27T21:59:02.291Z,1023.79
2023-02-27T22:01:02.285Z,1023.73
2023-02-27T22:03:02.439Z,1023.73
2023-02-27T22:05:02.350Z,1023.73
2023-02-27T22:07:02.340Z,1023.64
2023-02-27T22:09:02.348Z,1023.64
2023-02-27T22:11:02.402Z,1023.64
2023-02-27T22:13:02.385Z,1023.64
2023-02-27T22:15:02.402Z,1023.64
2023-02-27T22:17:02.414Z,1023.64
2023-02-27T22:19:02.280Z,1023.66
2023-02-27T22:21:02.338Z,1023.63
2023-02-27T22:23:02.347Z,1023.63
2023-02-27T22:25:02.361Z,1023.63
2023-02-27T22:27:02.403Z,1023.63
2023-02-27T22:29:02.375Z,1023.65
2023-02-27T22:31:02.346Z,1023.65
2023-02-27T22:33:02.427Z,1023.65
2023-02-27T22:35:02.320Z,1023.65
2023-02-27T22:37:02.361Z,1023.65
2023-02-27T22:39:02.351Z,1023.65
2023-02-27T22:41:02.376Z,1023.65
2023-02-27T22:43:02.402Z,1023.65
2023-02-27T22:45:02.402Z,1023.65
2023-02-27T22:47:02.310Z,1023.65
2023-02-27T22:49:02.444Z,1023.65
2023-02-27T22:51:02.360Z,1023.65
2023-02-27T22:53:02.298Z,1023.65
2023-02-27T22:55:02.281Z,1023.65
2023-02-27T22:57:02.397Z,1023.65
2023-02-27T22:59:02.305Z,1023.51
2023-02-27T23:01:02.430Z,1023.51
2023-02-27T23:03:02.357Z,1023.51
2023-02-27T23:05:02.334Z,1023.51
2023-02-27T23:07:02.356Z,1023.51
2023-02-27T23:09:02.409Z,1023.51
2023-02-27T23:11:02.406Z,1023.51
2023-02-27T23:13:32.304Z,1023.49
2023-02-27T23:15:32.436Z,1023.49
2023-02-27T23:17:32.424Z,1023.49
2023-02-27T23:19:32.384Z,1023.49
2023-02-27T23:21:32.369Z,1023.49
2023-02-27T23:23:32.355Z,1023.49
2023-02-27T23:25:32.332Z,1023.49
2023-02-27T23:27:32.423Z,1023.49
2023-02-27T23:29:32.525Z,1023.50
2023-02-27T23:31:34.683Z,1023.50
2023-02-27T23:33:32.347Z,1023.50
2023-02-27T23:35:32.397Z,1023.50
2023-02-27T23:37:32.346Z,1023.50
2023-02-27T23:39:32.328Z,1023.50
2023-02-27T23:41:32.328Z,1023.42
2023-02-27T23:43:32.426Z,1023.42
2023-02-27T23:45:32.431Z,1023.39
2023-02-27T23:47:32.324Z,1023.39
2023-02-27T23:49:32.404Z,1023.32
2023-02-27T23:51:32.693Z,1023.32
2023-02-27T23:53:32.383Z,1023.31
2023-02-27T23:55:32.375Z,1023.31
2023-02-27T23:57:32.344Z,1023.31
2023-02-27T23:59:32.361Z,1023.31
